sensor_id;sensor_type;location;lat;lon;timestamp;temperature;humidity
48666;DHT22;34452;50.796;4.994;2023-04-08T00:01:04;8.90;99.90
48666;DHT22;34452;50.796;4.994;2023-04-08T00:03:31;8.90;99.90
48666;DHT22;34452;50.796;4.994;2023-04-08T00:05:56;8.90;99.90
48666;DHT22;34452;50.796;4.994;2023-04-08T00:08:22;8.90;99.90
48666;DHT22;34452;50.796;4.994;2023-04-08T00:10:48;8.90;99.90
48666;DHT22;34452;50.796;4.994;2023-04-08T00:13:14;8.80;99.90
48666;DHT22;34452;50.796;4.994;2023-04-08T00:15:40;8.80;99.90
48666;DHT22;34452;50.796;4.994;2023-04-08T00:18:06;8.80;99.90
48666;DHT22;34452;50.796;4.994;2023-04-08T00:20:32;8.80;99.90
48666;DHT22;34452;50.796;4.994;2023-04-08T00:22:58;8.80;99.90
48666;DHT22;34452;50.796;4.994;2023-04-08T00:25:24;8.80;99.90
48666;DHT22;34452;50.796;4.994;2023-04-08T00:27:49;8.80;99.90
48666;DHT22;34452;50.796;4.994;2023-04-08T00:30:15;8.80;99.90
48666;DHT22;34452;50.796;4.994;2023-04-08T00:32:41;8.80;99.90
48666;DHT22;34452;50.796;4.994;2023-04-08T00:35:07;8.80;99.90
48666;DHT22;34452;50.796;4.994;2023-04-08T00:37:33;8.80;99.90
48666;DHT22;34452;50.796;4.994;2023-04-08T00:39:59;8.80;99.90
48666;DHT22;34452;50.796;4.994;2023-04-08T00:42:25;8.80;99.90
48666;DHT22;34452;50.796;4.994;2023-04-08T00:44:51;8.80;99.90
48666;DHT22;34452;50.796;4.994;2023-04-08T00:47:17;8.80;99.90
48666;DHT22;34452;50.796;4.994;2023-04-08T00:49:43;8.80;99.90
48666;DHT22;34452;50.796;4.994;2023-04-08T00:52:09;8.80;99.90
48666;DHT22;34452;50.796;4.994;2023-04-08T00:54:36;8.80;99.90
48666;DHT22;34452;50.796;4.994;2023-04-08T00:57:02;8.80;99.90
48666;DHT22;34452;50.796;4.994;2023-04-08T00:59:30;8.80;99.90
48666;DHT22;34452;50.796;4.994;2023-04-08T01:02:18;8.80;99.90
48666;DHT22;34452;50.796;4.994;2023-04-08T01:04:58;8.80;99.90
48666;DHT22;34452;50.796;4.994;2023-04-08T01:07:30;8.80;99.90
48666;DHT22;34452;50.796;4.994;2023-04-08T01:10:01;8.80;99.90
48666;DHT22;34452;50.796;4.994;2023-04-08T01:12:29;8.80;99.90
48666;DHT22;34452;50.796;4.994;2023-04-08T01:15:15;8.80;99.90
48666;DHT22;34452;50.796;4.994;2023-04-08T01:17:42;8.80;99.90
48666;DHT22;34452;50.796;4.994;2023-04-08T01:20:09;8.80;99.90
48666;DHT22;34452;50.796;4.994;2023-04-08T01:27:58;8.80;99.90
48666;DHT22;34452;50.796;4.994;2023-04-08T01:30:25;8.80;99.90
48666;DHT22;34452;50.796;4.994;2023-04-08T01:32:53;8.80;99.90
48666;DHT22;34452;50.796;4.994;2023-04-08T01:35:20;8.80;99.90
48666;DHT22;34452;50.796;4.994;2023-04-08T01:37:48;8.80;99.90
48666;DHT22;34452;50.796;4.994;2023-04-08T01:40:15;8.80;99.90
48666;DHT22;34452;50.796;4.994;2023-04-08T01:42:41;8.70;99.90
48666;DHT22;34452;50.796;4.994;2023-04-08T01:45:08;8.70;99.90
48666;DHT22;34452;50.796;4.994;2023-04-08T01:47:36;8.70;99.90
48666;DHT22;34452;50.796;4.994;2023-04-08T01:50:03;8.70;99.90
48666;DHT22;34452;50.796;4.994;2023-04-08T01:52:32;8.80;99.90
48666;DHT22;34452;50.796;4.994;2023-04-08T01:54:59;8.70;99.90
48666;DHT22;34452;50.796;4.994;2023-04-08T01:57:27;8.80;99.90
48666;DHT22;34452;50.796;4.994;2023-04-08T02:00:01;8.70;99.90
48666;DHT22;34452;50.796;4.994;2023-04-08T02:02:29;8.60;99.90
48666;DHT22;34452;50.796;4.994;2023-04-08T02:04:56;8.60;99.90
48666;DHT22;34452;50.796;4.994;2023-04-08T02:07:22;8.60;99.90
48666;DHT22;34452;50.796;4.994;2023-04-08T02:09:49;8.60;99.90
48666;DHT22;34452;50.796;4.994;2023-04-08T02:12:16;8.60;99.90
48666;DHT22;34452;50.796;4.994;2023-04-08T02:14:42;8.60;99.90
48666;DHT22;34452;50.796;4.994;2023-04-08T02:17:10;8.60;99.90
48666;DHT22;34452;50.796;4.994;2023-04-08T02:20:07;8.60;99.90
48666;DHT22;34452;50.796;4.994;2023-04-08T02:25:28;8.60;99.90
48666;DHT22;34452;50.796;4.994;2023-04-08T02:27:55;8.60;99.90
48666;DHT22;34452;50.796;4.994;2023-04-08T02:30:23;8.60;99.90
48666;DHT22;34452;50.796;4.994;2023-04-08T02:32:50;8.60;99.90
48666;DHT22;34452;50.796;4.994;2023-04-08T02:35:19;8.70;99.90
48666;DHT22;34452;50.796;4.994;2023-04-08T02:37:45;8.70;99.90
48666;DHT22;34452;50.796;4.994;2023-04-08T02:40:23;8.70;99.90
48666;DHT22;34452;50.796;4.994;2023-04-08T02:42:49;8.70;99.90
48666;DHT22;34452;50.796;4.994;2023-04-08T02:45:14;8.70;99.90
48666;DHT22;34452;50.796;4.994;2023-04-08T02:47:40;8.70;99.90
48666;DHT22;34452;50.796;4.994;2023-04-08T02:50:06;8.60;99.90
48666;DHT22;34452;50.796;4.994;2023-04-08T02:52:32;8.70;99.90
48666;DHT22;34452;50.796;4.994;2023-04-08T02:54:58;8.70;99.90
48666;DHT22;34452;50.796;4.994;2023-04-08T02:57:23;8.70;99.90
48666;DHT22;34452;50.796;4.994;2023-04-08T02:59:49;8.70;99.90
48666;DHT22;34452;50.796;4.994;2023-04-08T03:02:15;8.70;99.90
48666;DHT22;34452;50.796;4.994;2023-04-08T03:04:41;8.70;99.90
48666;DHT22;34452;50.796;4.994;2023-04-08T03:07:07;8.70;99.90
48666;DHT22;34452;50.796;4.994;2023-04-08T03:09:33;8.70;99.90
48666;DHT22;34452;50.796;4.994;2023-04-08T03:11:58;8.80;99.90
48666;DHT22;34452;50.796;4.994;2023-04-08T03:14:24;8.70;99.90
48666;DHT22;34452;50.796;4.994;2023-04-08T03:16:50;8.70;99.90
48666;DHT22;34452;50.796;4.994;2023-04-08T03:19:16;8.70;99.90
48666;DHT22;34452;50.796;4.994;2023-04-08T03:21:41;8.70;99.90
48666;DHT22;34452;50.796;4.994;2023-04-08T03:24:07;8.70;99.90
48666;DHT22;34452;50.796;4.994;2023-04-08T03:26:33;8.70;99.90
48666;DHT22;34452;50.796;4.994;2023-04-08T03:28:59;8.70;99.90
48666;DHT22;34452;50.796;4.994;2023-04-08T03:31:25;8.70;99.90
48666;DHT22;34452;50.796;4.994;2023-04-08T03:33:50;8.80;99.90
48666;DHT22;34452;50.796;4.994;2023-04-08T03:36:16;8.70;99.90
48666;DHT22;34452;50.796;4.994;2023-04-08T03:38:43;8.80;99.90
48666;DHT22;34452;50.796;4.994;2023-04-08T03:41:09;8.70;99.90
48666;DHT22;34452;50.796;4.994;2023-04-08T03:43:34;8.80;99.90
48666;DHT22;34452;50.796;4.994;2023-04-08T03:46:00;8.70;99.90
48666;DHT22;34452;50.796;4.994;2023-04-08T03:48:26;8.80;99.90
48666;DHT22;34452;50.796;4.994;2023-04-08T03:50:52;8.70;99.90
48666;DHT22;34452;50.796;4.994;2023-04-08T03:53:18;8.80;99.90
48666;DHT22;34452;50.796;4.994;2023-04-08T03:55:43;8.80;99.90
48666;DHT22;34452;50.796;4.994;2023-04-08T03:58:09;8.70;99.90
48666;DHT22;34452;50.796;4.994;2023-04-08T04:00:35;8.70;99.90
48666;DHT22;34452;50.796;4.994;2023-04-08T04:03:01;8.70;99.90
48666;DHT22;34452;50.796;4.994;2023-04-08T04:05:28;8.70;99.90
48666;DHT22;34452;50.796;4.994;2023-04-08T04:07:53;8.80;99.90
48666;DHT22;34452;50.796;4.994;2023-04-08T04:10:19;8.70;99.90
48666;DHT22;34452;50.796;4.994;2023-04-08T04:12:45;8.80;99.90
48666;DHT22;34452;50.796;4.994;2023-04-08T04:15:12;8.80;99.90
48666;DHT22;34452;50.796;4.994;2023-04-08T04:17:38;8.80;99.90
48666;DHT22;34452;50.796;4.994;2023-04-08T04:20:05;8.80;99.90
48666;DHT22;34452;50.796;4.994;2023-04-08T04:22:31;8.80;99.90
48666;DHT22;34452;50.796;4.994;2023-04-08T04:24:57;8.80;99.90
48666;DHT22;34452;50.796;4.994;2023-04-08T04:27:22;8.80;99.90
48666;DHT22;34452;50.796;4.994;2023-04-08T04:29:48;8.70;99.90
48666;DHT22;34452;50.796;4.994;2023-04-08T04:32:14;8.80;99.90
48666;DHT22;34452;50.796;4.994;2023-04-08T04:34:40;8.70;99.90
48666;DHT22;34452;50.796;4.994;2023-04-08T04:37:06;8.70;99.90
48666;DHT22;34452;50.796;4.994;2023-04-08T04:39:32;8.80;99.90
48666;DHT22;34452;50.796;4.994;2023-04-08T04:41:57;8.70;99.90
48666;DHT22;34452;50.796;4.994;2023-04-08T04:44:23;8.70;99.90
48666;DHT22;34452;50.796;4.994;2023-04-08T04:46:49;8.70;99.90
48666;DHT22;34452;50.796;4.994;2023-04-08T04:49:15;8.70;99.90
48666;DHT22;34452;50.796;4.994;2023-04-08T04:51:41;8.70;99.90
48666;DHT22;34452;50.796;4.994;2023-04-08T04:54:07;8.70;99.90
48666;DHT22;34452;50.796;4.994;2023-04-08T04:56:32;8.70;99.90
48666;DHT22;34452;50.796;4.994;2023-04-08T04:58:58;8.70;99.90
48666;DHT22;34452;50.796;4.994;2023-04-08T05:01:24;8.70;99.90
48666;DHT22;34452;50.796;4.994;2023-04-08T05:03:50;8.80;99.90
48666;DHT22;34452;50.796;4.994;2023-04-08T05:06:15;8.70;99.90
48666;DHT22;34452;50.796;4.994;2023-04-08T05:08:41;8.70;99.90
48666;DHT22;34452;50.796;4.994;2023-04-08T05:11:09;8.80;99.90
48666;DHT22;34452;50.796;4.994;2023-04-08T05:13:35;8.70;99.90
48666;DHT22;34452;50.796;4.994;2023-04-08T05:16:00;8.70;99.90
48666;DHT22;34452;50.796;4.994;2023-04-08T05:18:26;8.70;99.90
48666;DHT22;34452;50.796;4.994;2023-04-08T05:20:52;8.70;99.90
48666;DHT22;34452;50.796;4.994;2023-04-08T05:23:18;8.70;99.90
48666;DHT22;34452;50.796;4.994;2023-04-08T05:25:43;8.70;99.90
48666;DHT22;34452;50.796;4.994;2023-04-08T05:28:09;8.70;99.90
48666;DHT22;34452;50.796;4.994;2023-04-08T05:30:35;8.70;99.90
48666;DHT22;34452;50.796;4.994;2023-04-08T05:33:00;8.80;99.90
48666;DHT22;34452;50.796;4.994;2023-04-08T05:35:27;8.70;99.90
48666;DHT22;34452;50.796;4.994;2023-04-08T05:37:53;8.80;99.90
48666;DHT22;34452;50.796;4.994;2023-04-08T05:40:19;8.80;99.90
48666;DHT22;34452;50.796;4.994;2023-04-08T05:42:45;8.80;99.90
48666;DHT22;34452;50.796;4.994;2023-04-08T05:45:10;8.80;99.90
48666;DHT22;34452;50.796;4.994;2023-04-08T05:47:36;8.80;99.90
48666;DHT22;34452;50.796;4.994;2023-04-08T05:50:02;8.80;99.90
48666;DHT22;34452;50.796;4.994;2023-04-08T05:52:27;8.80;99.90
48666;DHT22;34452;50.796;4.994;2023-04-08T05:54:53;8.80;99.90
48666;DHT22;34452;50.796;4.994;2023-04-08T05:57:19;8.80;99.90
48666;DHT22;34452;50.796;4.994;2023-04-08T05:59:44;8.80;99.90
48666;DHT22;34452;50.796;4.994;2023-04-08T06:02:10;8.80;99.90
48666;DHT22;34452;50.796;4.994;2023-04-08T06:04:36;8.80;99.90
48666;DHT22;34452;50.796;4.994;2023-04-08T06:07:01;8.80;99.90
48666;DHT22;34452;50.796;4.994;2023-04-08T06:09:28;8.90;99.90
48666;DHT22;34452;50.796;4.994;2023-04-08T06:11:54;9.00;99.90
48666;DHT22;34452;50.796;4.994;2023-04-08T06:14:21;9.00;99.90
48666;DHT22;34452;50.796;4.994;2023-04-08T06:16:47;9.00;99.90
48666;DHT22;34452;50.796;4.994;2023-04-08T06:19:13;9.10;99.90
48666;DHT22;34452;50.796;4.994;2023-04-08T06:21:38;9.10;99.90
48666;DHT22;34452;50.796;4.994;2023-04-08T06:24:04;9.10;99.90
48666;DHT22;34452;50.796;4.994;2023-04-08T06:26:30;9.20;99.90
48666;DHT22;34452;50.796;4.994;2023-04-08T06:28:56;9.10;99.90
48666;DHT22;34452;50.796;4.994;2023-04-08T06:31:21;9.00;99.90
48666;DHT22;34452;50.796;4.994;2023-04-08T06:33:47;9.00;99.90
48666;DHT22;34452;50.796;4.994;2023-04-08T06:36:13;8.90;99.90
48666;DHT22;34452;50.796;4.994;2023-04-08T06:38:38;9.00;99.90
48666;DHT22;34452;50.796;4.994;2023-04-08T06:41:05;9.00;99.90
48666;DHT22;34452;50.796;4.994;2023-04-08T06:43:32;9.00;99.90
48666;DHT22;34452;50.796;4.994;2023-04-08T06:45:57;9.10;99.90
48666;DHT22;34452;50.796;4.994;2023-04-08T06:48:24;9.20;99.90
48666;DHT22;34452;50.796;4.994;2023-04-08T06:51:02;9.30;99.90
48666;DHT22;34452;50.796;4.994;2023-04-08T06:53:28;9.30;99.90
48666;DHT22;34452;50.796;4.994;2023-04-08T06:55:55;9.30;99.90
48666;DHT22;34452;50.796;4.994;2023-04-08T06:58:21;9.30;99.90
48666;DHT22;34452;50.796;4.994;2023-04-08T07:00:47;9.30;99.90
48666;DHT22;34452;50.796;4.994;2023-04-08T07:03:12;9.40;99.90
48666;DHT22;34452;50.796;4.994;2023-04-08T07:05:38;9.40;99.90
48666;DHT22;34452;50.796;4.994;2023-04-08T07:08:05;9.40;99.90
48666;DHT22;34452;50.796;4.994;2023-04-08T07:10:31;9.30;99.90
48666;DHT22;34452;50.796;4.994;2023-04-08T07:12:56;9.40;99.90
48666;DHT22;34452;50.796;4.994;2023-04-08T07:15:22;9.50;99.90
48666;DHT22;34452;50.796;4.994;2023-04-08T07:17:48;9.50;99.90
48666;DHT22;34452;50.796;4.994;2023-04-08T07:20:14;9.50;99.90
48666;DHT22;34452;50.796;4.994;2023-04-08T07:22:40;9.50;99.90
48666;DHT22;34452;50.796;4.994;2023-04-08T07:25:05;9.50;99.90
48666;DHT22;34452;50.796;4.994;2023-04-08T07:27:33;9.50;99.90
48666;DHT22;34452;50.796;4.994;2023-04-08T07:29:59;9.50;99.90
48666;DHT22;34452;50.796;4.994;2023-04-08T07:32:25;9.50;99.90
48666;DHT22;34452;50.796;4.994;2023-04-08T07:34:50;9.50;99.90
48666;DHT22;34452;50.796;4.994;2023-04-08T07:37:16;9.50;99.90
48666;DHT22;34452;50.796;4.994;2023-04-08T07:39:42;9.50;99.90
48666;DHT22;34452;50.796;4.994;2023-04-08T07:42:08;9.50;99.90
48666;DHT22;34452;50.796;4.994;2023-04-08T07:44:34;9.50;99.90
48666;DHT22;34452;50.796;4.994;2023-04-08T07:46:59;9.50;99.90
48666;DHT22;34452;50.796;4.994;2023-04-08T07:49:25;9.40;99.90
48666;DHT22;34452;50.796;4.994;2023-04-08T07:51:51;9.50;99.90
48666;DHT22;34452;50.796;4.994;2023-04-08T07:54:17;9.50;99.90
48666;DHT22;34452;50.796;4.994;2023-04-08T07:56:43;9.50;99.90
48666;DHT22;34452;50.796;4.994;2023-04-08T07:59:10;9.50;99.90
48666;DHT22;34452;50.796;4.994;2023-04-08T08:01:36;9.50;99.90
48666;DHT22;34452;50.796;4.994;2023-04-08T08:04:02;9.50;99.90
48666;DHT22;34452;50.796;4.994;2023-04-08T08:06:28;9.50;99.90
48666;DHT22;34452;50.796;4.994;2023-04-08T08:08:54;9.50;99.90
48666;DHT22;34452;50.796;4.994;2023-04-08T08:11:20;9.50;99.90
48666;DHT22;34452;50.796;4.994;2023-04-08T08:13:46;9.50;99.90
48666;DHT22;34452;50.796;4.994;2023-04-08T08:16:12;9.40;99.90
48666;DHT22;34452;50.796;4.994;2023-04-08T08:18:38;9.40;99.90
48666;DHT22;34452;50.796;4.994;2023-04-08T08:21:04;9.50;99.90
48666;DHT22;34452;50.796;4.994;2023-04-08T08:23:30;9.50;99.90
48666;DHT22;34452;50.796;4.994;2023-04-08T08:26:08;9.60;99.90
48666;DHT22;34452;50.796;4.994;2023-04-08T08:28:35;9.70;99.90
48666;DHT22;34452;50.796;4.994;2023-04-08T08:31:01;9.70;99.90
48666;DHT22;34452;50.796;4.994;2023-04-08T08:33:28;9.80;99.90
48666;DHT22;34452;50.796;4.994;2023-04-08T08:35:53;9.80;99.90
48666;DHT22;34452;50.796;4.994;2023-04-08T08:38:20;9.90;99.90
48666;DHT22;34452;50.796;4.994;2023-04-08T08:40:46;10.00;99.90
48666;DHT22;34452;50.796;4.994;2023-04-08T08:43:12;10.20;99.90
48666;DHT22;34452;50.796;4.994;2023-04-08T08:45:39;10.30;99.90
48666;DHT22;34452;50.796;4.994;2023-04-08T08:48:06;10.40;99.90
48666;DHT22;34452;50.796;4.994;2023-04-08T08:50:34;10.50;99.90
48666;DHT22;34452;50.796;4.994;2023-04-08T08:53:00;10.70;99.90
48666;DHT22;34452;50.796;4.994;2023-04-08T08:55:29;10.80;99.90
48666;DHT22;34452;50.796;4.994;2023-04-08T08:57:56;11.00;99.90
48666;DHT22;34452;50.796;4.994;2023-04-08T09:03:34;11.10;99.90
48666;DHT22;34452;50.796;4.994;2023-04-08T09:06:00;11.10;99.90
48666;DHT22;34452;50.796;4.994;2023-04-08T09:08:45;11.10;99.90
48666;DHT22;34452;50.796;4.994;2023-04-08T09:11:16;11.20;99.90
48666;DHT22;34452;50.796;4.994;2023-04-08T09:13:42;11.20;99.90
48666;DHT22;34452;50.796;4.994;2023-04-08T09:16:10;11.10;99.90
48666;DHT22;34452;50.796;4.994;2023-04-08T09:18:36;11.10;99.90
48666;DHT22;34452;50.796;4.994;2023-04-08T09:21:03;11.20;99.90
48666;DHT22;34452;50.796;4.994;2023-04-08T09:23:44;11.30;99.90
48666;DHT22;34452;50.796;4.994;2023-04-08T09:26:13;11.40;99.90
48666;DHT22;34452;50.796;4.994;2023-04-08T09:28:40;11.80;99.90
48666;DHT22;34452;50.796;4.994;2023-04-08T09:31:27;12.00;99.90
48666;DHT22;34452;50.796;4.994;2023-04-08T09:33:56;12.30;99.90
48666;DHT22;34452;50.796;4.994;2023-04-08T09:36:22;12.20;99.90
48666;DHT22;34452;50.796;4.994;2023-04-08T09:38:48;12.20;99.90
48666;DHT22;34452;50.796;4.994;2023-04-08T09:41:15;11.90;99.90
48666;DHT22;34452;50.796;4.994;2023-04-08T09:43:47;11.80;99.90
48666;DHT22;34452;50.796;4.994;2023-04-08T09:46:15;11.70;99.90
48666;DHT22;34452;50.796;4.994;2023-04-08T09:48:48;11.70;99.90
48666;DHT22;34452;50.796;4.994;2023-04-08T09:51:18;11.60;99.90
48666;DHT22;34452;50.796;4.994;2023-04-08T09:53:46;11.60;99.90
48666;DHT22;34452;50.796;4.994;2023-04-08T09:56:13;11.50;99.90
48666;DHT22;34452;50.796;4.994;2023-04-08T09:58:43;11.50;99.90
48666;DHT22;34452;50.796;4.994;2023-04-08T10:01:13;11.40;99.90
48666;DHT22;34452;50.796;4.994;2023-04-08T10:06:29;11.60;99.90
48666;DHT22;34452;50.796;4.994;2023-04-08T10:08:57;11.60;99.90
48666;DHT22;34452;50.796;4.994;2023-04-08T10:11:23;11.70;99.90
48666;DHT22;34452;50.796;4.994;2023-04-08T10:13:49;11.80;99.90
48666;DHT22;34452;50.796;4.994;2023-04-08T10:18:42;11.70;99.90
48666;DHT22;34452;50.796;4.994;2023-04-08T10:24:14;12.10;99.90
48666;DHT22;34452;50.796;4.994;2023-04-08T10:26:42;12.00;99.90
48666;DHT22;34452;50.796;4.994;2023-04-08T10:31:48;12.10;99.90
48666;DHT22;34452;50.796;4.994;2023-04-08T10:34:16;12.50;99.90
48666;DHT22;34452;50.796;4.994;2023-04-08T10:36:43;12.70;99.90
48666;DHT22;34452;50.796;4.994;2023-04-08T10:39:09;12.90;99.90
48666;DHT22;34452;50.796;4.994;2023-04-08T10:41:41;13.00;99.90
48666;DHT22;34452;50.796;4.994;2023-04-08T10:44:27;12.90;99.90
48666;DHT22;34452;50.796;4.994;2023-04-08T10:46:53;12.80;99.90
48666;DHT22;34452;50.796;4.994;2023-04-08T10:49:19;12.60;99.90
48666;DHT22;34452;50.796;4.994;2023-04-08T10:51:46;12.50;99.90
48666;DHT22;34452;50.796;4.994;2023-04-08T10:54:14;12.40;99.90
48666;DHT22;34452;50.796;4.994;2023-04-08T10:56:59;12.40;99.90
48666;DHT22;34452;50.796;4.994;2023-04-08T10:59:28;12.60;99.90
48666;DHT22;34452;50.796;4.994;2023-04-08T11:01:54;12.70;99.90
48666;DHT22;34452;50.796;4.994;2023-04-08T11:04:20;12.90;99.90
48666;DHT22;34452;50.796;4.994;2023-04-08T11:06:48;13.00;99.90
48666;DHT22;34452;50.796;4.994;2023-04-08T11:09:14;13.30;99.90
48666;DHT22;34452;50.796;4.994;2023-04-08T11:11:42;13.70;99.90
48666;DHT22;34452;50.796;4.994;2023-04-08T11:14:08;13.70;99.90
48666;DHT22;34452;50.796;4.994;2023-04-08T11:16:36;13.90;99.90
48666;DHT22;34452;50.796;4.994;2023-04-08T11:19:03;13.80;99.90
48666;DHT22;34452;50.796;4.994;2023-04-08T11:21:31;13.70;99.90
48666;DHT22;34452;50.796;4.994;2023-04-08T11:23:59;13.60;99.90
48666;DHT22;34452;50.796;4.994;2023-04-08T11:26:26;13.50;99.90
48666;DHT22;34452;50.796;4.994;2023-04-08T11:28:53;13.50;99.90
48666;DHT22;34452;50.796;4.994;2023-04-08T11:31:19;13.60;99.90
48666;DHT22;34452;50.796;4.994;2023-04-08T11:33:48;13.70;99.90
48666;DHT22;34452;50.796;4.994;2023-04-08T11:36:16;13.50;99.90
48666;DHT22;34452;50.796;4.994;2023-04-08T11:38:42;13.30;99.90
48666;DHT22;34452;50.796;4.994;2023-04-08T11:41:08;13.40;99.90
48666;DHT22;34452;50.796;4.994;2023-04-08T11:43:34;13.40;99.90
48666;DHT22;34452;50.796;4.994;2023-04-08T11:46:17;13.30;99.90
48666;DHT22;34452;50.796;4.994;2023-04-08T11:48:57;13.20;99.90
48666;DHT22;34452;50.796;4.994;2023-04-08T11:51:23;13.10;99.90
48666;DHT22;34452;50.796;4.994;2023-04-08T11:53:49;13.00;99.90
48666;DHT22;34452;50.796;4.994;2023-04-08T11:56:20;13.00;99.90
48666;DHT22;34452;50.796;4.994;2023-04-08T11:58:47;13.00;99.90
48666;DHT22;34452;50.796;4.994;2023-04-08T12:01:13;12.90;99.90
48666;DHT22;34452;50.796;4.994;2023-04-08T12:03:52;13.00;99.90
48666;DHT22;34452;50.796;4.994;2023-04-08T12:06:17;12.90;99.90
48666;DHT22;34452;50.796;4.994;2023-04-08T12:08:43;13.10;99.90
48666;DHT22;34452;50.796;4.994;2023-04-08T12:11:09;13.20;99.90
48666;DHT22;34452;50.796;4.994;2023-04-08T12:13:35;13.30;99.90
48666;DHT22;34452;50.796;4.994;2023-04-08T12:16:01;13.70;99.90
48666;DHT22;34452;50.796;4.994;2023-04-08T12:18:27;14.10;99.90
48666;DHT22;34452;50.796;4.994;2023-04-08T12:20:52;14.40;99.90
48666;DHT22;34452;50.796;4.994;2023-04-08T12:23:19;14.40;99.90
48666;DHT22;34452;50.796;4.994;2023-04-08T12:25:44;14.20;99.90
48666;DHT22;34452;50.796;4.994;2023-04-08T12:28:10;13.70;99.90
48666;DHT22;34452;50.796;4.994;2023-04-08T12:30:36;13.60;99.90
48666;DHT22;34452;50.796;4.994;2023-04-08T12:33:02;13.40;99.90
48666;DHT22;34452;50.796;4.994;2023-04-08T12:35:28;13.30;99.90
48666;DHT22;34452;50.796;4.994;2023-04-08T12:37:53;13.30;99.90
48666;DHT22;34452;50.796;4.994;2023-04-08T12:40:19;13.20;99.90
48666;DHT22;34452;50.796;4.994;2023-04-08T12:42:45;13.10;99.90
48666;DHT22;34452;50.796;4.994;2023-04-08T12:45:11;13.20;99.90
48666;DHT22;34452;50.796;4.994;2023-04-08T12:47:37;13.20;99.90
48666;DHT22;34452;50.796;4.994;2023-04-08T12:50:02;13.30;99.90
48666;DHT22;34452;50.796;4.994;2023-04-08T12:52:29;13.70;99.90
48666;DHT22;34452;50.796;4.994;2023-04-08T12:54:55;14.30;99.90
48666;DHT22;34452;50.796;4.994;2023-04-08T12:57:20;14.80;99.90
48666;DHT22;34452;50.796;4.994;2023-04-08T12:59:46;15.20;99.90
48666;DHT22;34452;50.796;4.994;2023-04-08T13:02:13;15.50;98.20
48666;DHT22;34452;50.796;4.994;2023-04-08T13:04:38;15.60;99.20
48666;DHT22;34452;50.796;4.994;2023-04-08T13:07:04;15.70;99.50
48666;DHT22;34452;50.796;4.994;2023-04-08T13:09:32;15.60;99.30
48666;DHT22;34452;50.796;4.994;2023-04-08T13:11:57;15.30;98.30
48666;DHT22;34452;50.796;4.994;2023-04-08T13:14:24;15.10;97.60
48666;DHT22;34452;50.796;4.994;2023-04-08T13:16:49;15.20;98.50
48666;DHT22;34452;50.796;4.994;2023-04-08T13:19:15;15.50;98.00
48666;DHT22;34452;50.796;4.994;2023-04-08T13:21:41;16.00;98.80
48666;DHT22;34452;50.796;4.994;2023-04-08T13:24:07;16.40;97.90
48666;DHT22;34452;50.796;4.994;2023-04-08T13:26:32;16.70;96.70
48666;DHT22;34452;50.796;4.994;2023-04-08T13:28:58;17.10;96.80
48666;DHT22;34452;50.796;4.994;2023-04-08T13:31:24;17.40;93.70
48666;DHT22;34452;50.796;4.994;2023-04-08T13:33:50;16.80;92.00
48666;DHT22;34452;50.796;4.994;2023-04-08T13:36:16;16.30;92.20
48666;DHT22;34452;50.796;4.994;2023-04-08T13:38:42;15.70;91.90
48666;DHT22;34452;50.796;4.994;2023-04-08T13:41:08;15.10;91.30
48666;DHT22;34452;50.796;4.994;2023-04-08T13:43:33;14.70;92.60
48666;DHT22;34452;50.796;4.994;2023-04-08T13:45:59;14.40;92.80
48666;DHT22;34452;50.796;4.994;2023-04-08T13:48:25;14.40;94.10
48666;DHT22;34452;50.796;4.994;2023-04-08T13:50:50;14.50;93.10
48666;DHT22;34452;50.796;4.994;2023-04-08T13:53:16;14.30;92.20
48666;DHT22;34452;50.796;4.994;2023-04-08T13:55:41;14.50;90.80
48666;DHT22;34452;50.796;4.994;2023-04-08T13:58:07;14.70;90.30
48666;DHT22;34452;50.796;4.994;2023-04-08T14:00:33;14.80;90.70
48666;DHT22;34452;50.796;4.994;2023-04-08T14:02:58;14.90;91.20
48666;DHT22;34452;50.796;4.994;2023-04-08T14:05:24;14.80;91.90
48666;DHT22;34452;50.796;4.994;2023-04-08T14:07:50;14.80;91.40
48666;DHT22;34452;50.796;4.994;2023-04-08T14:10:16;14.60;90.70
48666;DHT22;34452;50.796;4.994;2023-04-08T14:12:42;14.50;92.40
48666;DHT22;34452;50.796;4.994;2023-04-08T14:15:08;14.40;92.00
48666;DHT22;34452;50.796;4.994;2023-04-08T14:17:33;14.40;91.70
48666;DHT22;34452;50.796;4.994;2023-04-08T14:20:00;14.40;90.20
48666;DHT22;34452;50.796;4.994;2023-04-08T14:22:26;14.30;90.10
48666;DHT22;34452;50.796;4.994;2023-04-08T14:24:52;14.30;90.50
48666;DHT22;34452;50.796;4.994;2023-04-08T14:27:17;14.40;90.80
48666;DHT22;34452;50.796;4.994;2023-04-08T14:29:43;14.50;91.20
48666;DHT22;34452;50.796;4.994;2023-04-08T14:32:09;14.40;91.50
48666;DHT22;34452;50.796;4.994;2023-04-08T14:34:34;14.50;92.00
48666;DHT22;34452;50.796;4.994;2023-04-08T14:37:00;14.50;90.10
48666;DHT22;34452;50.796;4.994;2023-04-08T14:39:25;14.50;90.80
48666;DHT22;34452;50.796;4.994;2023-04-08T14:41:51;14.60;91.70
48666;DHT22;34452;50.796;4.994;2023-04-08T14:44:17;14.70;91.30
48666;DHT22;34452;50.796;4.994;2023-04-08T14:46:42;14.70;90.90
48666;DHT22;34452;50.796;4.994;2023-04-08T14:49:08;14.80;91.60
48666;DHT22;34452;50.796;4.994;2023-04-08T14:51:34;14.80;91.50
48666;DHT22;34452;50.796;4.994;2023-04-08T14:54:02;14.80;90.60
48666;DHT22;34452;50.796;4.994;2023-04-08T14:56:28;14.80;91.10
48666;DHT22;34452;50.796;4.994;2023-04-08T14:58:53;14.90;90.70
48666;DHT22;34452;50.796;4.994;2023-04-08T15:01:20;14.80;90.20
48666;DHT22;34452;50.796;4.994;2023-04-08T15:03:45;14.70;90.20
48666;DHT22;34452;50.796;4.994;2023-04-08T15:06:11;14.80;91.10
48666;DHT22;34452;50.796;4.994;2023-04-08T15:08:41;15.00;91.30
48666;DHT22;34452;50.796;4.994;2023-04-08T15:11:07;15.50;90.10
48666;DHT22;34452;50.796;4.994;2023-04-08T15:13:33;16.10;90.50
48666;DHT22;34452;50.796;4.994;2023-04-08T15:16:00;16.40;88.30
48666;DHT22;34452;50.796;4.994;2023-04-08T15:18:26;16.60;88.70
48666;DHT22;34452;50.796;4.994;2023-04-08T15:20:52;16.40;84.80
48666;DHT22;34452;50.796;4.994;2023-04-08T15:23:17;16.30;85.10
48666;DHT22;34452;50.796;4.994;2023-04-08T15:25:43;16.80;85.40
48666;DHT22;34452;50.796;4.994;2023-04-08T15:28:09;16.70;84.40
48666;DHT22;34452;50.796;4.994;2023-04-08T15:30:35;17.00;78.30
48666;DHT22;34452;50.796;4.994;2023-04-08T15:33:02;17.00;76.30
48666;DHT22;34452;50.796;4.994;2023-04-08T15:35:28;17.10;80.20
48666;DHT22;34452;50.796;4.994;2023-04-08T15:37:54;16.90;75.00
48666;DHT22;34452;50.796;4.994;2023-04-08T15:40:20;16.70;77.00
48666;DHT22;34452;50.796;4.994;2023-04-08T15:42:46;16.80;79.50
48666;DHT22;34452;50.796;4.994;2023-04-08T15:45:12;16.90;73.90
48666;DHT22;34452;50.796;4.994;2023-04-08T15:47:38;17.30;75.80
48666;DHT22;34452;50.796;4.994;2023-04-08T15:50:04;17.90;76.10
48666;DHT22;34452;50.796;4.994;2023-04-08T15:52:31;18.10;72.10
48666;DHT22;34452;50.796;4.994;2023-04-08T15:54:56;18.30;68.10
48666;DHT22;34452;50.796;4.994;2023-04-08T15:57:22;18.30;66.90
48666;DHT22;34452;50.796;4.994;2023-04-08T15:59:51;18.40;66.90